sensor_id;sensor_type;location;lat;lon;timestamp;pressure;altitude;pressure_sealevel;temperature;humidity
16525;BME280;8375;33.594;-117.718;2022-12-20T00:00:06;100989.78;;;16.86;40.14
16525;BME280;8375;33.594;-117.718;2022-12-20T00:02:35;100989.53;;;16.79;41.99
16525;BME280;8375;33.594;-117.718;2022-12-20T00:05:04;100986.63;;;16.72;43.31
16525;BME280;8375;33.594;-117.718;2022-12-20T00:07:33;100984.81;;;16.63;44.18
16525;BME280;8375;33.594;-117.718;2022-12-20T00:10:04;100991.88;;;16.53;44.83
16525;BME280;8375;33.594;-117.718;2022-12-20T00:12:33;100994.50;;;16.43;45.97
16525;BME280;8375;33.594;-117.718;2022-12-20T00:15:01;100999.03;;;16.31;46.70
16525;BME280;8375;33.594;-117.718;2022-12-20T00:17:30;100999.03;;;16.21;48.11
16525;BME280;8375;33.594;-117.718;2022-12-20T00:19:59;100997.22;;;16.12;48.89
16525;BME280;8375;33.594;-117.718;2022-12-20T00:22:31;100994.97;;;15.97;49.39
16525;BME280;8375;33.594;-117.718;2022-12-20T00:25:00;101002.63;;;15.89;51.67
16525;BME280;8375;33.594;-117.718;2022-12-20T00:27:30;101004.50;;;15.77;52.54
16525;BME280;8375;33.594;-117.718;2022-12-20T00:29:59;101009.97;;;15.64;53.08
16525;BME280;8375;33.594;-117.718;2022-12-20T00:32:28;101009.09;;;15.54;54.47
16525;BME280;8375;33.594;-117.718;2022-12-20T00:34:57;101011.78;;;15.43;55.53
16525;BME280;8375;33.594;-117.718;2022-12-20T00:37:26;101007.84;;;15.27;56.27
16525;BME280;8375;33.594;-117.718;2022-12-20T00:39:54;101014.38;;;15.11;56.47
16525;BME280;8375;33.594;-117.718;2022-12-20T00:42:23;101012.53;;;15.02;56.49
16525;BME280;8375;33.594;-117.718;2022-12-20T00:44:53;101011.25;;;14.96;57.27
16525;BME280;8375;33.594;-117.718;2022-12-20T00:47:22;101018.66;;;14.91;58.14
16525;BME280;8375;33.594;-117.718;2022-12-20T00:49:50;101011.69;;;14.80;58.33
16525;BME280;8375;33.594;-117.718;2022-12-20T00:52:19;101013.50;;;14.69;58.97
16525;BME280;8375;33.594;-117.718;2022-12-20T00:54:47;101011.38;;;14.62;58.53
16525;BME280;8375;33.594;-117.718;2022-12-20T00:57:16;101011.88;;;14.56;59.18
16525;BME280;8375;33.594;-117.718;2022-12-20T00:59:45;101013.69;;;14.44;60.00
16525;BME280;8375;33.594;-117.718;2022-12-20T01:02:15;101020.38;;;14.26;60.80
16525;BME280;8375;33.594;-117.718;2022-12-20T01:04:44;101021.50;;;14.12;61.91
16525;BME280;8375;33.594;-117.718;2022-12-20T01:07:12;101024.94;;;14.01;62.01
16525;BME280;8375;33.594;-117.718;2022-12-20T01:09:41;101029.44;;;13.87;63.47
16525;BME280;8375;33.594;-117.718;2022-12-20T01:12:10;101031.00;;;13.67;64.20
16525;BME280;8375;33.594;-117.718;2022-12-20T01:14:38;101034.91;;;13.61;63.73
16525;BME280;8375;33.594;-117.718;2022-12-20T01:17:07;101035.25;;;13.57;64.31
16525;BME280;8375;33.594;-117.718;2022-12-20T01:19:37;101034.88;;;13.50;65.47
16525;BME280;8375;33.594;-117.718;2022-12-20T01:22:05;101034.63;;;13.42;65.99
16525;BME280;8375;33.594;-117.718;2022-12-20T01:24:34;101033.53;;;13.33;66.30
16525;BME280;8375;33.594;-117.718;2022-12-20T01:27:03;101036.94;;;13.22;66.26
16525;BME280;8375;33.594;-117.718;2022-12-20T01:29:31;101041.50;;;13.07;66.51
16525;BME280;8375;33.594;-117.718;2022-12-20T01:32:00;101045.88;;;12.95;67.49
16525;BME280;8375;33.594;-117.718;2022-12-20T01:34:28;101035.28;;;12.85;68.20
16525;BME280;8375;33.594;-117.718;2022-12-20T01:36:59;101043.66;;;12.77;68.79
16525;BME280;8375;33.594;-117.718;2022-12-20T01:39:27;101043.88;;;12.74;68.58
16525;BME280;8375;33.594;-117.718;2022-12-20T01:41:56;101043.59;;;12.66;69.08
16525;BME280;8375;33.594;-117.718;2022-12-20T01:44:54;101045.31;;;12.54;69.59
16525;BME280;8375;33.594;-117.718;2022-12-20T01:47:26;101050.22;;;12.46;70.63
16525;BME280;8375;33.594;-117.718;2022-12-20T01:49:58;101059.53;;;12.37;71.16
16525;BME280;8375;33.594;-117.718;2022-12-20T01:52:34;101064.69;;;12.26;71.38
16525;BME280;8375;33.594;-117.718;2022-12-20T01:56:21;101063.44;;;12.18;72.47
16525;BME280;8375;33.594;-117.718;2022-12-20T01:58:50;101065.03;;;12.08;72.04
16525;BME280;8375;33.594;-117.718;2022-12-20T02:01:21;101075.63;;;11.92;72.53
16525;BME280;8375;33.594;-117.718;2022-12-20T02:03:51;101081.38;;;11.84;72.95
16525;BME280;8375;33.594;-117.718;2022-12-20T02:06:23;101078.34;;;11.78;73.48
16525;BME280;8375;33.594;-117.718;2022-12-20T02:08:55;101087.47;;;11.70;73.55
16525;BME280;8375;33.594;-117.718;2022-12-20T02:11:42;101082.81;;;11.63;73.61
16525;BME280;8375;33.594;-117.718;2022-12-20T02:14:21;101094.56;;;11.55;73.86
16525;BME280;8375;33.594;-117.718;2022-12-20T02:16:58;101098.31;;;11.51;73.61
16525;BME280;8375;33.594;-117.718;2022-12-20T02:22:47;101093.19;;;11.37;74.19
16525;BME280;8375;33.594;-117.718;2022-12-20T02:25:42;101099.41;;;11.34;74.15
16525;BME280;8375;33.594;-117.718;2022-12-20T02:28:27;101106.13;;;11.24;74.61
16525;BME280;8375;33.594;-117.718;2022-12-20T02:31:06;101109.66;;;11.10;75.15
16525;BME280;8375;33.594;-117.718;2022-12-20T02:33:38;101111.59;;;11.06;75.35
16525;BME280;8375;33.594;-117.718;2022-12-20T02:36:07;101119.72;;;11.02;75.48
16525;BME280;8375;33.594;-117.718;2022-12-20T02:38:37;101114.91;;;10.95;75.27
16525;BME280;8375;33.594;-117.718;2022-12-20T02:41:09;101125.50;;;10.92;75.78
16525;BME280;8375;33.594;-117.718;2022-12-20T02:43:42;101128.09;;;10.92;75.61
16525;BME280;8375;33.594;-117.718;2022-12-20T02:46:32;101134.78;;;10.82;76.04
16525;BME280;8375;33.594;-117.718;2022-12-20T02:49:05;101140.25;;;10.77;76.26
16525;BME280;8375;33.594;-117.718;2022-12-20T02:51:41;101140.22;;;10.64;76.66
16525;BME280;8375;33.594;-117.718;2022-12-20T02:54:13;101147.72;;;10.54;77.13
16525;BME280;8375;33.594;-117.718;2022-12-20T02:56:48;101150.97;;;10.44;77.86
16525;BME280;8375;33.594;-117.718;2022-12-20T02:59:23;101148.72;;;10.37;78.57
16525;BME280;8375;33.594;-117.718;2022-12-20T03:01:55;101156.88;;;10.31;79.05
16525;BME280;8375;33.594;-117.718;2022-12-20T03:04:26;101159.66;;;10.28;78.41
16525;BME280;8375;33.594;-117.718;2022-12-20T03:06:58;101161.88;;;10.20;78.80
16525;BME280;8375;33.594;-117.718;2022-12-20T03:09:27;101163.09;;;10.14;79.55
16525;BME280;8375;33.594;-117.718;2022-12-20T03:11:57;101181.31;;;10.12;80.00
16525;BME280;8375;33.594;-117.718;2022-12-20T03:14:26;101181.63;;;10.08;79.92
16525;BME280;8375;33.594;-117.718;2022-12-20T03:16:57;101182.78;;;10.02;80.13
16525;BME280;8375;33.594;-117.718;2022-12-20T03:19:25;101183.81;;;10.00;80.16
16525;BME280;8375;33.594;-117.718;2022-12-20T03:21:54;101191.88;;;9.95;80.04
16525;BME280;8375;33.594;-117.718;2022-12-20T03:24:23;101192.97;;;9.91;80.89
16525;BME280;8375;33.594;-117.718;2022-12-20T03:26:52;101196.19;;;9.80;80.78
16525;BME280;8375;33.594;-117.718;2022-12-20T03:29:20;101203.22;;;9.78;81.12
16525;BME280;8375;33.594;-117.718;2022-12-20T03:31:49;101202.84;;;9.69;81.69
16525;BME280;8375;33.594;-117.718;2022-12-20T03:34:19;101203.19;;;9.63;82.37
16525;BME280;8375;33.594;-117.718;2022-12-20T03:36:48;101207.03;;;9.56;82.58
16525;BME280;8375;33.594;-117.718;2022-12-20T03:39:17;101212.06;;;9.59;82.86
16525;BME280;8375;33.594;-117.718;2022-12-20T03:41:45;101206.94;;;9.58;82.70
16525;BME280;8375;33.594;-117.718;2022-12-20T03:44:15;101204.69;;;9.51;83.13
16525;BME280;8375;33.594;-117.718;2022-12-20T03:46:43;101203.03;;;9.50;83.62
16525;BME280;8375;33.594;-117.718;2022-12-20T03:49:12;101212.06;;;9.43;83.98
16525;BME280;8375;33.594;-117.718;2022-12-20T03:51:42;101211.66;;;9.35;84.40
16525;BME280;8375;33.594;-117.718;2022-12-20T03:54:11;101211.75;;;9.33;84.59
16525;BME280;8375;33.594;-117.718;2022-12-20T03:56:39;101216.38;;;9.28;85.30
16525;BME280;8375;33.594;-117.718;2022-12-20T03:59:08;101217.44;;;9.24;85.48
16525;BME280;8375;33.594;-117.718;2022-12-20T04:01:37;101212.34;;;9.22;86.24
16525;BME280;8375;33.594;-117.718;2022-12-20T04:04:08;101220.09;;;9.22;86.55
16525;BME280;8375;33.594;-117.718;2022-12-20T04:06:37;101221.78;;;9.23;86.73
16525;BME280;8375;33.594;-117.718;2022-12-20T04:09:08;101221.88;;;9.22;87.85
16525;BME280;8375;33.594;-117.718;2022-12-20T04:11:39;101224.53;;;9.20;88.02
16525;BME280;8375;33.594;-117.718;2022-12-20T04:14:08;101221.38;;;9.15;88.22
16525;BME280;8375;33.594;-117.718;2022-12-20T04:16:37;101220.44;;;9.16;88.46
16525;BME280;8375;33.594;-117.718;2022-12-20T04:19:06;101221.38;;;9.15;89.03
16525;BME280;8375;33.594;-117.718;2022-12-20T04:21:35;101228.56;;;9.10;89.23
16525;BME280;8375;33.594;-117.718;2022-12-20T04:24:04;101230.56;;;9.05;89.62
16525;BME280;8375;33.594;-117.718;2022-12-20T04:26:34;101233.56;;;8.97;90.26
16525;BME280;8375;33.594;-117.718;2022-12-20T04:29:03;101230.88;;;8.99;90.53
16525;BME280;8375;33.594;-117.718;2022-12-20T04:31:32;101232.81;;;8.95;91.03
16525;BME280;8375;33.594;-117.718;2022-12-20T04:34:01;101225.81;;;8.97;91.54
16525;BME280;8375;33.594;-117.718;2022-12-20T04:36:30;101227.53;;;8.97;91.91
16525;BME280;8375;33.594;-117.718;2022-12-20T04:38:59;101228.63;;;8.92;91.85
16525;BME280;8375;33.594;-117.718;2022-12-20T04:41:28;101221.78;;;8.91;91.85
16525;BME280;8375;33.594;-117.718;2022-12-20T04:43:58;101228.03;;;8.87;92.33
16525;BME280;8375;33.594;-117.718;2022-12-20T04:46:27;101229.88;;;8.85;92.91
16525;BME280;8375;33.594;-117.718;2022-12-20T04:48:56;101234.13;;;8.86;93.04
16525;BME280;8375;33.594;-117.718;2022-12-20T04:51:25;101234.38;;;8.82;92.96
16525;BME280;8375;33.594;-117.718;2022-12-20T04:53:54;101235.38;;;8.79;92.86
16525;BME280;8375;33.594;-117.718;2022-12-20T04:56:24;101232.78;;;8.79;92.65
16525;BME280;8375;33.594;-117.718;2022-12-20T04:58:54;101233.81;;;8.76;92.75
16525;BME280;8375;33.594;-117.718;2022-12-20T05:01:25;101228.84;;;8.72;92.90
16525;BME280;8375;33.594;-117.718;2022-12-20T05:03:53;101228.78;;;8.73;93.58
16525;BME280;8375;33.594;-117.718;2022-12-20T05:06:22;101229.16;;;8.65;93.63
16525;BME280;8375;33.594;-117.718;2022-12-20T05:08:51;101236.34;;;8.60;93.99
16525;BME280;8375;33.594;-117.718;2022-12-20T05:11:20;101229.50;;;8.59;93.74
16525;BME280;8375;33.594;-117.718;2022-12-20T05:13:49;101227.06;;;8.56;94.16
16525;BME280;8375;33.594;-117.718;2022-12-20T05:16:18;101226.31;;;8.54;94.15
16525;BME280;8375;33.594;-117.718;2022-12-20T05:18:48;101237.66;;;8.51;94.45
16525;BME280;8375;33.594;-117.718;2022-12-20T05:21:16;101232.78;;;8.45;94.09
16525;BME280;8375;33.594;-117.718;2022-12-20T05:24:02;101235.44;;;8.44;94.20
16525;BME280;8375;33.594;-117.718;2022-12-20T05:26:47;101239.09;;;8.40;94.69
16525;BME280;8375;33.594;-117.718;2022-12-20T05:29:16;101245.50;;;8.32;95.06
16525;BME280;8375;33.594;-117.718;2022-12-20T05:31:45;101243.06;;;8.29;95.48
16525;BME280;8375;33.594;-117.718;2022-12-20T05:34:15;101247.56;;;8.26;95.91
16525;BME280;8375;33.594;-117.718;2022-12-20T05:36:44;101246.09;;;8.20;96.34
16525;BME280;8375;33.594;-117.718;2022-12-20T05:39:13;101246.25;;;8.17;95.62
16525;BME280;8375;33.594;-117.718;2022-12-20T05:41:42;101245.50;;;8.15;95.80
16525;BME280;8375;33.594;-117.718;2022-12-20T05:44:11;101246.41;;;8.14;95.73
16525;BME280;8375;33.594;-117.718;2022-12-20T05:46:40;101250.91;;;8.10;96.52
16525;BME280;8375;33.594;-117.718;2022-12-20T05:49:09;101251.75;;;8.11;96.78
16525;BME280;8375;33.594;-117.718;2022-12-20T05:51:40;101244.28;;;8.04;97.28
16525;BME280;8375;33.594;-117.718;2022-12-20T05:54:09;101240.47;;;7.94;97.22
16525;BME280;8375;33.594;-117.718;2022-12-20T05:56:38;101247.47;;;7.92;97.59
16525;BME280;8375;33.594;-117.718;2022-12-20T05:59:06;101247.53;;;7.90;97.39
16525;BME280;8375;33.594;-117.718;2022-12-20T06:01:35;101244.44;;;7.84;97.67
16525;BME280;8375;33.594;-117.718;2022-12-20T06:04:05;101242.91;;;7.80;98.03
16525;BME280;8375;33.594;-117.718;2022-12-20T06:06:34;101250.81;;;7.76;98.64
16525;BME280;8375;33.594;-117.718;2022-12-20T06:09:06;101249.94;;;7.76;99.54
16525;BME280;8375;33.594;-117.718;2022-12-20T06:11:37;101244.94;;;7.73;99.74
16525;BME280;8375;33.594;-117.718;2022-12-20T06:14:06;101251.00;;;7.72;99.92
16525;BME280;8375;33.594;-117.718;2022-12-20T06:16:34;101249.47;;;7.68;99.79
16525;BME280;8375;33.594;-117.718;2022-12-20T06:19:04;101246.91;;;7.68;99.37
16525;BME280;8375;33.594;-117.718;2022-12-20T06:21:33;101244.59;;;7.61;99.39
16525;BME280;8375;33.594;-117.718;2022-12-20T06:24:02;101247.19;;;7.61;99.61
16525;BME280;8375;33.594;-117.718;2022-12-20T06:26:33;101238.69;;;7.59;100.00
16525;BME280;8375;33.594;-117.718;2022-12-20T06:29:03;101243.09;;;7.57;99.54
16525;BME280;8375;33.594;-117.718;2022-12-20T06:31:34;101244.38;;;7.48;99.38
16525;BME280;8375;33.594;-117.718;2022-12-20T06:34:03;101241.94;;;7.45;99.11
16525;BME280;8375;33.594;-117.718;2022-12-20T06:36:56;101239.63;;;7.39;99.78
16525;BME280;8375;33.594;-117.718;2022-12-20T06:39:25;101243.13;;;7.38;100.00
16525;BME280;8375;33.594;-117.718;2022-12-20T06:41:55;101244.03;;;7.37;99.75
16525;BME280;8375;33.594;-117.718;2022-12-20T06:44:24;101239.78;;;7.36;100.00
16525;BME280;8375;33.594;-117.718;2022-12-20T06:46:53;101240.84;;;7.32;100.00
16525;BME280;8375;33.594;-117.718;2022-12-20T06:49:21;101232.38;;;7.28;100.00
16525;BME280;8375;33.594;-117.718;2022-12-20T06:51:50;101225.69;;;7.24;100.00
16525;BME280;8375;33.594;-117.718;2022-12-20T06:54:19;101224.84;;;7.24;100.00
16525;BME280;8375;33.594;-117.718;2022-12-20T06:56:47;101226.59;;;7.23;100.00
16525;BME280;8375;33.594;-117.718;2022-12-20T06:59:18;101231.06;;;7.19;100.00
16525;BME280;8375;33.594;-117.718;2022-12-20T07:01:46;101228.69;;;7.15;100.00
16525;BME280;8375;33.594;-117.718;2022-12-20T07:04:15;101226.94;;;7.15;100.00
16525;BME280;8375;33.594;-117.718;2022-12-20T07:06:44;101227.16;;;7.11;100.00
16525;BME280;8375;33.594;-117.718;2022-12-20T07:09:12;101231.69;;;7.05;100.00
16525;BME280;8375;33.594;-117.718;2022-12-20T07:11:41;101232.09;;;6.96;100.00
16525;BME280;8375;33.594;-117.718;2022-12-20T07:14:21;101229.38;;;6.99;100.00
16525;BME280;8375;33.594;-117.718;2022-12-20T07:16:55;101226.88;;;6.98;100.00
16525;BME280;8375;33.594;-117.718;2022-12-20T07:19:28;101230.38;;;6.97;100.00
16525;BME280;8375;33.594;-117.718;2022-12-20T07:21:57;101221.16;;;6.91;100.00
16525;BME280;8375;33.594;-117.718;2022-12-20T07:24:25;101225.75;;;6.84;100.00
16525;BME280;8375;33.594;-117.718;2022-12-20T07:26:54;101218.94;;;6.83;100.00
16525;BME280;8375;33.594;-117.718;2022-12-20T07:29:25;101219.06;;;6.80;100.00
16525;BME280;8375;33.594;-117.718;2022-12-20T07:31:54;101230.56;;;6.73;100.00
16525;BME280;8375;33.594;-117.718;2022-12-20T07:34:23;101222.09;;;6.69;100.00
16525;BME280;8375;33.594;-117.718;2022-12-20T07:36:51;101218.91;;;6.64;100.00
16525;BME280;8375;33.594;-117.718;2022-12-20T07:39:20;101222.50;;;6.60;100.00
16525;BME280;8375;33.594;-117.718;2022-12-20T07:41:51;101225.31;;;6.55;100.00
16525;BME280;8375;33.594;-117.718;2022-12-20T07:44:20;101220.19;;;6.54;100.00
16525;BME280;8375;33.594;-117.718;2022-12-20T07:46:50;101218.47;;;6.54;100.00
16525;BME280;8375;33.594;-117.718;2022-12-20T07:49:19;101225.44;;;6.52;100.00
16525;BME280;8375;33.594;-117.718;2022-12-20T07:51:51;101222.09;;;6.50;100.00
16525;BME280;8375;33.594;-117.718;2022-12-20T07:54:26;101222.50;;;6.41;100.00
16525;BME280;8375;33.594;-117.718;2022-12-20T07:56:58;101225.97;;;6.40;100.00
16525;BME280;8375;33.594;-117.718;2022-12-20T07:59:34;101219.28;;;6.36;100.00
16525;BME280;8375;33.594;-117.718;2022-12-20T08:02:05;101221.97;;;6.33;100.00
16525;BME280;8375;33.594;-117.718;2022-12-20T08:04:35;101207.53;;;6.28;100.00
16525;BME280;8375;33.594;-117.718;2022-12-20T08:07:07;101214.63;;;6.23;100.00
16525;BME280;8375;33.594;-117.718;2022-12-20T08:09:40;101205.47;;;6.16;100.00
16525;BME280;8375;33.594;-117.718;2022-12-20T08:12:10;101203.69;;;6.18;100.00
16525;BME280;8375;33.594;-117.718;2022-12-20T08:14:41;101211.47;;;6.16;100.00
16525;BME280;8375;33.594;-117.718;2022-12-20T08:17:12;101207.22;;;6.15;100.00
16525;BME280;8375;33.594;-117.718;2022-12-20T08:19:40;101214.94;;;6.15;100.00
16525;BME280;8375;33.594;-117.718;2022-12-20T08:22:09;101218.50;;;6.13;100.00
16525;BME280;8375;33.594;-117.718;2022-12-20T08:24:38;101222.88;;;6.11;100.00
16525;BME280;8375;33.594;-117.718;2022-12-20T08:27:07;101221.25;;;6.08;100.00
16525;BME280;8375;33.594;-117.718;2022-12-20T08:29:35;101219.59;;;6.07;100.00
16525;BME280;8375;33.594;-117.718;2022-12-20T08:32:04;101217.72;;;6.11;100.00
16525;BME280;8375;33.594;-117.718;2022-12-20T08:34:34;101214.50;;;6.06;100.00
16525;BME280;8375;33.594;-117.718;2022-12-20T08:37:03;101216.19;;;6.07;100.00
16525;BME280;8375;33.594;-117.718;2022-12-20T08:39:32;101217.97;;;6.05;100.00
16525;BME280;8375;33.594;-117.718;2022-12-20T08:42:01;101217.22;;;6.03;100.00
16525;BME280;8375;33.594;-117.718;2022-12-20T08:44:32;101220.78;;;5.98;100.00
16525;BME280;8375;33.594;-117.718;2022-12-20T08:47:01;101213.88;;;5.99;100.00
16525;BME280;8375;33.594;-117.718;2022-12-20T08:49:29;101221.84;;;5.93;100.00
16525;BME280;8375;33.594;-117.718;2022-12-20T08:52:00;101221.84;;;5.93;100.00
16525;BME280;8375;33.594;-117.718;2022-12-20T08:54:28;101217.72;;;5.88;100.00
16525;BME280;8375;33.594;-117.718;2022-12-20T08:56:57;101216.00;;;5.89;100.00
16525;BME280;8375;33.594;-117.718;2022-12-20T08:59:26;101217.94;;;5.84;100.00
16525;BME280;8375;33.594;-117.718;2022-12-20T09:01:54;101218.06;;;5.81;100.00
16525;BME280;8375;33.594;-117.718;2022-12-20T09:04:23;101213.16;;;5.75;100.00
16525;BME280;8375;33.594;-117.718;2022-12-20T09:06:51;101214.06;;;5.73;100.00
16525;BME280;8375;33.594;-117.718;2022-12-20T09:09:22;101223.47;;;5.75;100.00
16525;BME280;8375;33.594;-117.718;2022-12-20T09:11:50;101231.88;;;5.78;100.00
16525;BME280;8375;33.594;-117.718;2022-12-20T09:14:19;101230.53;;;5.69;100.00
16525;BME280;8375;33.594;-117.718;2022-12-20T09:16:47;101225.63;;;5.63;100.00
16525;BME280;8375;33.594;-117.718;2022-12-20T09:19:16;101229.88;;;5.64;100.00
16525;BME280;8375;33.594;-117.718;2022-12-20T09:21:44;101221.31;;;5.64;100.00
16525;BME280;8375;33.594;-117.718;2022-12-20T09:24:13;101223.81;;;5.65;100.00
16525;BME280;8375;33.594;-117.718;2022-12-20T09:26:44;101213.53;;;5.65;100.00
16525;BME280;8375;33.594;-117.718;2022-12-20T09:29:12;101215.19;;;5.66;100.00
16525;BME280;8375;33.594;-117.718;2022-12-20T09:31:41;101219.69;;;5.61;100.00
16525;BME280;8375;33.594;-117.718;2022-12-20T09:34:09;101220.59;;;5.60;100.00
16525;BME280;8375;33.594;-117.718;2022-12-20T09:36:38;101224.97;;;5.58;100.00
16525;BME280;8375;33.594;-117.718;2022-12-20T09:39:07;101232.59;;;5.61;100.00
16525;BME280;8375;33.594;-117.718;2022-12-20T09:41:38;101232.88;;;5.53;100.00
16525;BME280;8375;33.594;-117.718;2022-12-20T09:44:15;101231.16;;;5.54;100.00
16525;BME280;8375;33.594;-117.718;2022-12-20T09:46:48;101230.28;;;5.76;100.00
16525;BME280;8375;33.594;-117.718;2022-12-20T09:49:28;101224.63;;;5.88;100.00
16525;BME280;8375;33.594;-117.718;2022-12-20T09:52:18;101227.38;;;5.83;100.00
16525;BME280;8375;33.594;-117.718;2022-12-20T09:54:56;101225.25;;;5.72;100.00
16525;BME280;8375;33.594;-117.718;2022-12-20T09:57:37;101223.72;;;5.68;100.00
16525;BME280;8375;33.594;-117.718;2022-12-20T10:00:14;101223.81;;;5.65;100.00
16525;BME280;8375;33.594;-117.718;2022-12-20T10:02:44;101223.28;;;5.57;100.00
16525;BME280;8375;33.594;-117.718;2022-12-20T10:05:15;101226.13;;;5.51;100.00
16525;BME280;8375;33.594;-117.718;2022-12-20T10:07:52;101225.22;;;5.52;100.00
16525;BME280;8375;33.594;-117.718;2022-12-20T10:10:41;101221.97;;;5.47;100.00
16525;BME280;8375;33.594;-117.718;2022-12-20T10:13:22;101218.75;;;5.41;100.00
16525;BME280;8375;33.594;-117.718;2022-12-20T10:15:59;101229.72;;;5.47;100.00
16525;BME280;8375;33.594;-117.718;2022-12-20T10:18:41;101226.22;;;5.48;100.00
16525;BME280;8375;33.594;-117.718;2022-12-20T10:21:20;101226.13;;;5.51;100.00
16525;BME280;8375;33.594;-117.718;2022-12-20T10:23:58;101222.63;;;5.52;100.00
16525;BME280;8375;33.594;-117.718;2022-12-20T10:26:28;101226.34;;;5.45;100.00
16525;BME280;8375;33.594;-117.718;2022-12-20T10:28:57;101224.00;;;5.38;100.00
16525;BME280;8375;33.594;-117.718;2022-12-20T10:31:27;101226.63;;;5.37;100.00
16525;BME280;8375;33.594;-117.718;2022-12-20T10:33:56;101222.66;;;5.28;100.00
16525;BME280;8375;33.594;-117.718;2022-12-20T10:36:26;101216.06;;;5.21;100.00
16525;BME280;8375;33.594;-117.718;2022-12-20T10:38:55;101220.28;;;5.23;100.00
16525;BME280;8375;33.594;-117.718;2022-12-20T10:41:25;101222.78;;;5.25;100.00
16525;BME280;8375;33.594;-117.718;2022-12-20T10:43:58;101215.16;;;5.22;100.00
16525;BME280;8375;33.594;-117.718;2022-12-20T10:46:40;101211.81;;;5.20;100.00
16525;BME280;8375;33.594;-117.718;2022-12-20T10:49:23;101212.78;;;5.17;100.00
16525;BME280;8375;33.594;-117.718;2022-12-20T10:51:55;101212.13;;;5.12;100.00
16525;BME280;8375;33.594;-117.718;2022-12-20T10:54:28;101207.09;;;5.09;100.00
16525;BME280;8375;33.594;-117.718;2022-12-20T10:56:59;101207.22;;;5.06;100.00
16525;BME280;8375;33.594;-117.718;2022-12-20T10:59:34;101205.84;;;5.19;100.00
16525;BME280;8375;33.594;-117.718;2022-12-20T11:02:24;101195.47;;;5.21;100.00
16525;BME280;8375;33.594;-117.718;2022-12-20T11:05:02;101187.88;;;5.18;100.00
16525;BME280;8375;33.594;-117.718;2022-12-20T11:07:33;101194.81;;;5.16;100.00
16525;BME280;8375;33.594;-117.718;2022-12-20T11:10:08;101193.13;;;5.14;100.00
16525;BME280;8375;33.594;-117.718;2022-12-20T11:12:52;101197.63;;;5.09;99.81
16525;BME280;8375;33.594;-117.718;2022-12-20T11:15:23;101187.09;;;5.16;100.00
16525;BME280;8375;33.594;-117.718;2022-12-20T11:17:57;101195.72;;;5.14;100.00
16525;BME280;8375;33.594;-117.718;2022-12-20T11:20:32;101190.13;;;5.03;100.00
16525;BME280;8375;33.594;-117.718;2022-12-20T11:23:14;101185.31;;;4.94;100.00
16525;BME280;8375;33.594;-117.718;2022-12-20T11:26:04;101173.69;;;4.83;100.00
16525;BME280;8375;33.594;-117.718;2022-12-20T11:28:52;101177.28;;;4.79;100.00
16525;BME280;8375;33.594;-117.718;2022-12-20T11:31:33;101170.41;;;4.80;100.00
16525;BME280;8375;33.594;-117.718;2022-12-20T11:34:18;101172.69;;;4.88;100.00
16525;BME280;8375;33.594;-117.718;2022-12-20T11:37:03;101163.47;;;4.82;100.00
16525;BME280;8375;33.594;-117.718;2022-12-20T11:39:39;101158.88;;;4.90;100.00
16525;BME280;8375;33.594;-117.718;2022-12-20T11:42:15;101158.03;;;4.90;100.00
16525;BME280;8375;33.594;-117.718;2022-12-20T11:44:52;101159.47;;;4.97;100.00
16525;BME280;8375;33.594;-117.718;2022-12-20T11:47:39;101153.97;;;5.06;100.00
16525;BME280;8375;33.594;-117.718;2022-12-20T11:50:31;101151.38;;;5.08;100.00
16525;BME280;8375;33.594;-117.718;2022-12-20T11:53:06;101153.38;;;4.99;100.00
16525;BME280;8375;33.594;-117.718;2022-12-20T11:55:38;101151.53;;;5.03;100.00
16525;BME280;8375;33.594;-117.718;2022-12-20T11:58:14;101155.06;;;5.01;100.00
16525;BME280;8375;33.594;-117.718;2022-12-20T12:00:49;101146.50;;;5.00;100.00
16525;BME280;8375;33.594;-117.718;2022-12-20T12:03:24;101148.16;;;5.01;100.00
16525;BME280;8375;33.594;-117.718;2022-12-20T12:05:58;101149.41;;;4.91;100.00
16525;BME280;8375;33.594;-117.718;2022-12-20T12:08:33;101147.19;;;4.81;100.00
16525;BME280;8375;33.594;-117.718;2022-12-20T12:11:13;101141.38;;;4.76;100.00
16525;BME280;8375;33.594;-117.718;2022-12-20T12:13:43;101139.69;;;4.75;100.00
16525;BME280;8375;33.594;-117.718;2022-12-20T12:16:17;101144.06;;;4.73;100.00
16525;BME280;8375;33.594;-117.718;2022-12-20T12:18:45;101148.31;;;4.74;100.00
16525;BME280;8375;33.594;-117.718;2022-12-20T12:21:18;101142.94;;;4.80;100.00
16525;BME280;8375;33.594;-117.718;2022-12-20T12:24:02;101140.25;;;4.83;100.00
16525;BME280;8375;33.594;-117.718;2022-12-20T12:26:34;101142.94;;;4.80;100.00
16525;BME280;8375;33.594;-117.718;2022-12-20T12:29:11;101146.06;;;4.89;100.00
16525;BME280;8375;33.594;-117.718;2022-12-20T12:31:43;101145.84;;;4.95;100.00
16525;BME280;8375;33.594;-117.718;2022-12-20T12:34:27;101142.09;;;5.04;100.00
16525;BME280;8375;33.594;-117.718;2022-12-20T12:37:32;101147.03;;;5.08;100.00
16525;BME280;8375;33.594;-117.718;2022-12-20T12:40:41;101143.69;;;5.06;100.00
16525;BME280;8375;33.594;-117.718;2022-12-20T12:43:48;101148.25;;;4.99;99.86
16525;BME280;8375;33.594;-117.718;2022-12-20T12:46:22;101147.03;;;5.08;100.00
16525;BME280;8375;33.594;-117.718;2022-12-20T12:48:57;101149.81;;;5.04;100.00
16525;BME280;8375;33.594;-117.718;2022-12-20T12:51:30;101151.16;;;4.90;99.79
16525;BME280;8375;33.594;-117.718;2022-12-20T12:54:16;101147.84;;;4.87;100.00
16525;BME280;8375;33.594;-117.718;2022-12-20T12:56:46;101149.53;;;4.88;100.00
16525;BME280;8375;33.594;-117.718;2022-12-20T12:59:22;101146.25;;;4.84;100.00
16525;BME280;8375;33.594;-117.718;2022-12-20T13:01:53;101161.47;;;4.90;100.00